sensor_id;sensor_type;location;lat;lon;timestamp;P1;durP1;ratioP1;P2;durP2;ratioP2
64871;SDS011;51351;51.450;6.614;2024-02-28T00:00:37;40.60;;;20.67;;
64871;SDS011;51351;51.450;6.614;2024-02-28T00:03:02;34.88;;;18.08;;
64871;SDS011;51351;51.450;6.614;2024-02-28T00:05:27;39.75;;;19.52;;
64871;SDS011;51351;51.450;6.614;2024-02-28T00:07:53;32.90;;;18.40;;
64871;SDS011;51351;51.450;6.614;2024-02-28T00:10:18;35.65;;;18.38;;
64871;SDS011;51351;51.450;6.614;2024-02-28T00:12:43;30.90;;;18.25;;
64871;SDS011;51351;51.450;6.614;2024-02-28T00:15:09;29.58;;;15.80;;
64871;SDS011;51351;51.450;6.614;2024-02-28T00:17:39;34.42;;;17.83;;
64871;SDS011;51351;51.450;6.614;2024-02-28T00:20:06;39.25;;;18.52;;
64871;SDS011;51351;51.450;6.614;2024-02-28T00:22:31;38.20;;;17.15;;
64871;SDS011;51351;51.450;6.614;2024-02-28T00:24:56;32.65;;;15.70;;
64871;SDS011;51351;51.450;6.614;2024-02-28T00:27:22;35.07;;;18.77;;
64871;SDS011;51351;51.450;6.614;2024-02-28T00:29:47;29.83;;;17.70;;
64871;SDS011;51351;51.450;6.614;2024-02-28T00:32:12;32.05;;;17.27;;
64871;SDS011;51351;51.450;6.614;2024-02-28T00:34:38;39.05;;;18.40;;
64871;SDS011;51351;51.450;6.614;2024-02-28T00:37:03;34.50;;;15.68;;
64871;SDS011;51351;51.450;6.614;2024-02-28T00:39:28;32.33;;;17.92;;
64871;SDS011;51351;51.450;6.614;2024-02-28T00:41:54;35.55;;;17.33;;
64871;SDS011;51351;51.450;6.614;2024-02-28T00:44:19;39.20;;;18.73;;
64871;SDS011;51351;51.450;6.614;2024-02-28T00:46:44;36.67;;;19.20;;
64871;SDS011;51351;51.450;6.614;2024-02-28T00:49:09;37.20;;;17.90;;
64871;SDS011;51351;51.450;6.614;2024-02-28T00:51:35;35.97;;;16.85;;
64871;SDS011;51351;51.450;6.614;2024-02-28T00:56:27;33.33;;;16.47;;
64871;SDS011;51351;51.450;6.614;2024-02-28T00:58:53;36.08;;;19.13;;
64871;SDS011;51351;51.450;6.614;2024-02-28T01:01:18;38.90;;;20.67;;
64871;SDS011;51351;51.450;6.614;2024-02-28T01:03:44;47.72;;;21.60;;
64871;SDS011;51351;51.450;6.614;2024-02-28T01:06:09;54.60;;;20.17;;
64871;SDS011;51351;51.450;6.614;2024-02-28T01:08:34;52.10;;;19.98;;
64871;SDS011;51351;51.450;6.614;2024-02-28T01:10:59;56.63;;;21.37;;
64871;SDS011;51351;51.450;6.614;2024-02-28T01:13:25;42.38;;;20.15;;
64871;SDS011;51351;51.450;6.614;2024-02-28T01:15:50;44.47;;;20.38;;
64871;SDS011;51351;51.450;6.614;2024-02-28T01:18:15;41.30;;;18.53;;
64871;SDS011;51351;51.450;6.614;2024-02-28T01:20:41;60.55;;;20.15;;
64871;SDS011;51351;51.450;6.614;2024-02-28T01:23:06;53.58;;;19.60;;
64871;SDS011;51351;51.450;6.614;2024-02-28T01:25:31;49.77;;;18.07;;
64871;SDS011;51351;51.450;6.614;2024-02-28T01:27:56;50.25;;;20.40;;
64871;SDS011;51351;51.450;6.614;2024-02-28T01:30:25;52.30;;;22.33;;
64871;SDS011;51351;51.450;6.614;2024-02-28T01:32:50;63.78;;;22.27;;
64871;SDS011;51351;51.450;6.614;2024-02-28T01:35:16;47.58;;;21.65;;
64871;SDS011;51351;51.450;6.614;2024-02-28T01:37:42;39.00;;;18.95;;
64871;SDS011;51351;51.450;6.614;2024-02-28T01:40:07;54.50;;;19.42;;
64871;SDS011;51351;51.450;6.614;2024-02-28T01:42:33;48.13;;;20.23;;
64871;SDS011;51351;51.450;6.614;2024-02-28T01:44:58;44.28;;;20.70;;
64871;SDS011;51351;51.450;6.614;2024-02-28T01:47:23;55.80;;;20.42;;
64871;SDS011;51351;51.450;6.614;2024-02-28T01:49:49;57.72;;;19.77;;
64871;SDS011;51351;51.450;6.614;2024-02-28T01:52:16;41.58;;;18.30;;
64871;SDS011;51351;51.450;6.614;2024-02-28T01:54:42;38.15;;;18.30;;
64871;SDS011;51351;51.450;6.614;2024-02-28T01:57:07;47.07;;;18.50;;
64871;SDS011;51351;51.450;6.614;2024-02-28T01:59:33;50.20;;;19.83;;
64871;SDS011;51351;51.450;6.614;2024-02-28T02:01:59;54.38;;;19.27;;
64871;SDS011;51351;51.450;6.614;2024-02-28T02:04:24;46.20;;;18.65;;
64871;SDS011;51351;51.450;6.614;2024-02-28T02:06:50;62.10;;;19.48;;
64871;SDS011;51351;51.450;6.614;2024-02-28T02:09:16;74.38;;;18.95;;
64871;SDS011;51351;51.450;6.614;2024-02-28T02:11:41;61.38;;;18.20;;
64871;SDS011;51351;51.450;6.614;2024-02-28T02:14:07;55.67;;;19.08;;
64871;SDS011;51351;51.450;6.614;2024-02-28T02:16:32;100.75;;;20.58;;
64871;SDS011;51351;51.450;6.614;2024-02-28T02:18:58;51.75;;;14.85;;
64871;SDS011;51351;51.450;6.614;2024-02-28T02:21:23;137.65;;;21.27;;
64871;SDS011;51351;51.450;6.614;2024-02-28T02:23:52;81.38;;;17.33;;
64871;SDS011;51351;51.450;6.614;2024-02-28T02:26:17;66.13;;;19.23;;
64871;SDS011;51351;51.450;6.614;2024-02-28T02:28:43;94.97;;;19.52;;
64871;SDS011;51351;51.450;6.614;2024-02-28T02:31:10;49.10;;;17.42;;
64871;SDS011;51351;51.450;6.614;2024-02-28T02:36:01;53.43;;;16.77;;
64871;SDS011;51351;51.450;6.614;2024-02-28T02:38:26;59.70;;;18.90;;
64871;SDS011;51351;51.450;6.614;2024-02-28T02:40:51;50.85;;;17.08;;
64871;SDS011;51351;51.450;6.614;2024-02-28T02:43:17;48.95;;;22.67;;
64871;SDS011;51351;51.450;6.614;2024-02-28T02:45:42;51.13;;;18.52;;
64871;SDS011;51351;51.450;6.614;2024-02-28T02:48:08;62.13;;;17.55;;
64871;SDS011;51351;51.450;6.614;2024-02-28T02:50:34;42.15;;;15.52;;
64871;SDS011;51351;51.450;6.614;2024-02-28T02:52:59;47.17;;;20.40;;
64871;SDS011;51351;51.450;6.614;2024-02-28T02:55:24;63.40;;;18.50;;
64871;SDS011;51351;51.450;6.614;2024-02-28T02:57:50;42.08;;;19.13;;
64871;SDS011;51351;51.450;6.614;2024-02-28T03:00:15;50.10;;;18.98;;
64871;SDS011;51351;51.450;6.614;2024-02-28T03:02:40;42.25;;;16.80;;
64871;SDS011;51351;51.450;6.614;2024-02-28T03:05:06;32.83;;;17.37;;
64871;SDS011;51351;51.450;6.614;2024-02-28T03:07:32;34.35;;;18.02;;
64871;SDS011;51351;51.450;6.614;2024-02-28T03:09:57;80.35;;;19.25;;
64871;SDS011;51351;51.450;6.614;2024-02-28T03:12:22;45.83;;;18.80;;
64871;SDS011;51351;51.450;6.614;2024-02-28T03:14:48;55.42;;;17.42;;
64871;SDS011;51351;51.450;6.614;2024-02-28T03:17:13;93.00;;;20.20;;
64871;SDS011;51351;51.450;6.614;2024-02-28T03:19:40;61.92;;;19.40;;
64871;SDS011;51351;51.450;6.614;2024-02-28T03:22:05;62.03;;;17.42;;
64871;SDS011;51351;51.450;6.614;2024-02-28T03:24:31;83.35;;;20.30;;
64871;SDS011;51351;51.450;6.614;2024-02-28T03:26:56;81.05;;;18.48;;
64871;SDS011;51351;51.450;6.614;2024-02-28T03:29:21;64.90;;;19.27;;
64871;SDS011;51351;51.450;6.614;2024-02-28T03:31:47;44.03;;;19.37;;
64871;SDS011;51351;51.450;6.614;2024-02-28T03:34:12;73.63;;;23.20;;
64871;SDS011;51351;51.450;6.614;2024-02-28T03:36:37;70.40;;;21.67;;
64871;SDS011;51351;51.450;6.614;2024-02-28T03:39:02;67.83;;;21.43;;
64871;SDS011;51351;51.450;6.614;2024-02-28T03:41:29;58.75;;;21.52;;
64871;SDS011;51351;51.450;6.614;2024-02-28T03:43:54;70.88;;;20.10;;
64871;SDS011;51351;51.450;6.614;2024-02-28T03:46:19;49.23;;;22.50;;
64871;SDS011;51351;51.450;6.614;2024-02-28T03:48:46;58.25;;;21.90;;
64871;SDS011;51351;51.450;6.614;2024-02-28T03:51:11;46.63;;;21.73;;
64871;SDS011;51351;51.450;6.614;2024-02-28T03:53:37;51.65;;;22.50;;
64871;SDS011;51351;51.450;6.614;2024-02-28T03:56:02;53.25;;;24.55;;
64871;SDS011;51351;51.450;6.614;2024-02-28T03:58:28;51.03;;;24.15;;
64871;SDS011;51351;51.450;6.614;2024-02-28T04:00:53;79.80;;;25.33;;
64871;SDS011;51351;51.450;6.614;2024-02-28T04:03:18;75.38;;;25.67;;
64871;SDS011;51351;51.450;6.614;2024-02-28T04:05:44;60.45;;;21.98;;
64871;SDS011;51351;51.450;6.614;2024-02-28T04:08:09;73.65;;;21.58;;
64871;SDS011;51351;51.450;6.614;2024-02-28T04:10:34;68.40;;;22.35;;
64871;SDS011;51351;51.450;6.614;2024-02-28T04:13:00;71.25;;;25.00;;
64871;SDS011;51351;51.450;6.614;2024-02-28T04:15:25;51.05;;;23.23;;
64871;SDS011;51351;51.450;6.614;2024-02-28T04:17:51;104.43;;;25.02;;
64871;SDS011;51351;51.450;6.614;2024-02-28T04:20:17;65.32;;;25.42;;
64871;SDS011;51351;51.450;6.614;2024-02-28T04:22:42;67.18;;;23.05;;
64871;SDS011;51351;51.450;6.614;2024-02-28T04:25:08;87.80;;;27.15;;
64871;SDS011;51351;51.450;6.614;2024-02-28T04:27:34;77.53;;;23.05;;
64871;SDS011;51351;51.450;6.614;2024-02-28T04:29:59;104.75;;;28.10;;
64871;SDS011;51351;51.450;6.614;2024-02-28T04:32:24;116.68;;;27.50;;
64871;SDS011;51351;51.450;6.614;2024-02-28T04:34:50;84.03;;;28.13;;
64871;SDS011;51351;51.450;6.614;2024-02-28T04:37:15;76.40;;;25.85;;
64871;SDS011;51351;51.450;6.614;2024-02-28T04:39:40;91.80;;;26.80;;
64871;SDS011;51351;51.450;6.614;2024-02-28T04:42:06;117.53;;;24.97;;
64871;SDS011;51351;51.450;6.614;2024-02-28T04:44:31;82.55;;;24.75;;
64871;SDS011;51351;51.450;6.614;2024-02-28T04:46:56;97.32;;;26.42;;
64871;SDS011;51351;51.450;6.614;2024-02-28T04:49:22;65.93;;;22.52;;
64871;SDS011;51351;51.450;6.614;2024-02-28T04:51:48;85.95;;;24.00;;
64871;SDS011;51351;51.450;6.614;2024-02-28T04:54:13;89.20;;;26.55;;
64871;SDS011;51351;51.450;6.614;2024-02-28T04:56:39;84.53;;;27.20;;
64871;SDS011;51351;51.450;6.614;2024-02-28T04:59:04;112.20;;;28.30;;
64871;SDS011;51351;51.450;6.614;2024-02-28T05:01:30;60.20;;;22.63;;
64871;SDS011;51351;51.450;6.614;2024-02-28T05:03:56;50.33;;;23.13;;
64871;SDS011;51351;51.450;6.614;2024-02-28T05:06:21;78.40;;;24.50;;
64871;SDS011;51351;51.450;6.614;2024-02-28T05:08:46;77.97;;;25.92;;
64871;SDS011;51351;51.450;6.614;2024-02-28T05:11:12;60.10;;;29.10;;
64871;SDS011;51351;51.450;6.614;2024-02-28T05:13:37;55.90;;;23.65;;
64871;SDS011;51351;51.450;6.614;2024-02-28T05:16:03;60.97;;;24.00;;
64871;SDS011;51351;51.450;6.614;2024-02-28T05:18:28;56.13;;;23.13;;
64871;SDS011;51351;51.450;6.614;2024-02-28T05:20:53;71.80;;;26.17;;
64871;SDS011;51351;51.450;6.614;2024-02-28T05:23:19;57.60;;;24.95;;
64871;SDS011;51351;51.450;6.614;2024-02-28T05:25:45;62.77;;;26.87;;
64871;SDS011;51351;51.450;6.614;2024-02-28T05:28:11;55.78;;;21.33;;
64871;SDS011;51351;51.450;6.614;2024-02-28T05:30:36;51.90;;;26.30;;
64871;SDS011;51351;51.450;6.614;2024-02-28T05:33:01;52.37;;;23.90;;
64871;SDS011;51351;51.450;6.614;2024-02-28T05:35:27;51.97;;;25.23;;
64871;SDS011;51351;51.450;6.614;2024-02-28T05:37:55;77.73;;;26.37;;
64871;SDS011;51351;51.450;6.614;2024-02-28T05:40:20;65.50;;;23.58;;
64871;SDS011;51351;51.450;6.614;2024-02-28T05:42:46;63.28;;;22.55;;
64871;SDS011;51351;51.450;6.614;2024-02-28T05:45:11;77.50;;;26.65;;
64871;SDS011;51351;51.450;6.614;2024-02-28T05:47:37;68.78;;;25.92;;
64871;SDS011;51351;51.450;6.614;2024-02-28T05:50:02;63.42;;;25.73;;
64871;SDS011;51351;51.450;6.614;2024-02-28T05:52:28;68.80;;;27.85;;
64871;SDS011;51351;51.450;6.614;2024-02-28T05:54:53;66.65;;;27.40;;
64871;SDS011;51351;51.450;6.614;2024-02-28T05:57:18;69.20;;;28.63;;
64871;SDS011;51351;51.450;6.614;2024-02-28T05:59:44;55.85;;;26.45;;
64871;SDS011;51351;51.450;6.614;2024-02-28T06:02:09;83.53;;;27.58;;
64871;SDS011;51351;51.450;6.614;2024-02-28T06:04:35;58.10;;;22.60;;
64871;SDS011;51351;51.450;6.614;2024-02-28T06:07:00;56.63;;;26.37;;
64871;SDS011;51351;51.450;6.614;2024-02-28T06:09:26;54.70;;;25.20;;
64871;SDS011;51351;51.450;6.614;2024-02-28T06:11:54;55.22;;;28.50;;
64871;SDS011;51351;51.450;6.614;2024-02-28T06:14:19;77.57;;;28.73;;
64871;SDS011;51351;51.450;6.614;2024-02-28T06:16:48;58.92;;;27.58;;
64871;SDS011;51351;51.450;6.614;2024-02-28T06:19:13;70.20;;;24.80;;
64871;SDS011;51351;51.450;6.614;2024-02-28T06:21:38;62.88;;;24.63;;
64871;SDS011;51351;51.450;6.614;2024-02-28T06:24:04;85.93;;;27.05;;
64871;SDS011;51351;51.450;6.614;2024-02-28T06:26:29;62.80;;;25.48;;
64871;SDS011;51351;51.450;6.614;2024-02-28T06:28:56;66.90;;;25.88;;
64871;SDS011;51351;51.450;6.614;2024-02-28T06:31:26;59.05;;;28.00;;
64871;SDS011;51351;51.450;6.614;2024-02-28T06:33:51;80.68;;;28.13;;
64871;SDS011;51351;51.450;6.614;2024-02-28T06:36:17;81.00;;;26.37;;
64871;SDS011;51351;51.450;6.614;2024-02-28T06:38:42;64.90;;;27.23;;
64871;SDS011;51351;51.450;6.614;2024-02-28T06:41:07;78.18;;;27.08;;
64871;SDS011;51351;51.450;6.614;2024-02-28T06:43:33;72.25;;;26.92;;
64871;SDS011;51351;51.450;6.614;2024-02-28T06:45:59;62.25;;;25.90;;
64871;SDS011;51351;51.450;6.614;2024-02-28T06:48:24;60.95;;;27.63;;
64871;SDS011;51351;51.450;6.614;2024-02-28T06:50:50;62.77;;;25.20;;
64871;SDS011;51351;51.450;6.614;2024-02-28T06:53:15;79.03;;;24.23;;
64871;SDS011;51351;51.450;6.614;2024-02-28T06:55:40;74.85;;;24.17;;
64871;SDS011;51351;51.450;6.614;2024-02-28T06:58:06;83.35;;;26.88;;
64871;SDS011;51351;51.450;6.614;2024-02-28T07:00:31;61.75;;;25.13;;
64871;SDS011;51351;51.450;6.614;2024-02-28T07:02:56;81.57;;;31.80;;
64871;SDS011;51351;51.450;6.614;2024-02-28T07:05:21;89.32;;;26.70;;
64871;SDS011;51351;51.450;6.614;2024-02-28T07:07:47;96.72;;;28.67;;
64871;SDS011;51351;51.450;6.614;2024-02-28T07:10:12;80.30;;;27.13;;
64871;SDS011;51351;51.450;6.614;2024-02-28T07:12:38;71.40;;;25.65;;
64871;SDS011;51351;51.450;6.614;2024-02-28T07:15:04;66.03;;;26.65;;
64871;SDS011;51351;51.450;6.614;2024-02-28T07:17:29;71.90;;;27.55;;
64871;SDS011;51351;51.450;6.614;2024-02-28T07:19:54;57.30;;;23.67;;
64871;SDS011;51351;51.450;6.614;2024-02-28T07:22:20;63.80;;;27.63;;
64871;SDS011;51351;51.450;6.614;2024-02-28T07:24:46;70.30;;;27.17;;
64871;SDS011;51351;51.450;6.614;2024-02-28T07:27:11;64.70;;;24.73;;
64871;SDS011;51351;51.450;6.614;2024-02-28T07:29:37;53.60;;;22.38;;
64871;SDS011;51351;51.450;6.614;2024-02-28T07:32:02;71.95;;;25.05;;
64871;SDS011;51351;51.450;6.614;2024-02-28T07:34:28;61.92;;;24.77;;
64871;SDS011;51351;51.450;6.614;2024-02-28T07:36:53;65.55;;;26.40;;
64871;SDS011;51351;51.450;6.614;2024-02-28T07:39:18;61.63;;;25.35;;
64871;SDS011;51351;51.450;6.614;2024-02-28T07:41:46;68.50;;;25.58;;
64871;SDS011;51351;51.450;6.614;2024-02-28T07:44:11;66.40;;;24.05;;
64871;SDS011;51351;51.450;6.614;2024-02-28T07:46:36;70.00;;;25.02;;
64871;SDS011;51351;51.450;6.614;2024-02-28T07:49:02;78.28;;;26.83;;
64871;SDS011;51351;51.450;6.614;2024-02-28T07:51:27;71.38;;;27.05;;
64871;SDS011;51351;51.450;6.614;2024-02-28T07:53:53;67.15;;;25.85;;
64871;SDS011;51351;51.450;6.614;2024-02-28T07:56:19;75.45;;;26.88;;
64871;SDS011;51351;51.450;6.614;2024-02-28T07:58:44;71.75;;;25.88;;
64871;SDS011;51351;51.450;6.614;2024-02-28T08:01:10;63.92;;;23.52;;
64871;SDS011;51351;51.450;6.614;2024-02-28T08:03:35;71.13;;;25.05;;
64871;SDS011;51351;51.450;6.614;2024-02-28T08:06:01;66.17;;;25.07;;
64871;SDS011;51351;51.450;6.614;2024-02-28T08:08:26;63.40;;;25.67;;
64871;SDS011;51351;51.450;6.614;2024-02-28T08:10:51;80.28;;;27.52;;
64871;SDS011;51351;51.450;6.614;2024-02-28T08:13:18;76.35;;;25.77;;
64871;SDS011;51351;51.450;6.614;2024-02-28T08:15:43;72.95;;;25.10;;
64871;SDS011;51351;51.450;6.614;2024-02-28T08:18:09;80.35;;;26.88;;
64871;SDS011;51351;51.450;6.614;2024-02-28T08:20:36;82.53;;;31.25;;
64871;SDS011;51351;51.450;6.614;2024-02-28T08:23:02;82.05;;;28.08;;
64871;SDS011;51351;51.450;6.614;2024-02-28T08:25:28;69.63;;;27.83;;
64871;SDS011;51351;51.450;6.614;2024-02-28T08:27:54;69.97;;;25.60;;
64871;SDS011;51351;51.450;6.614;2024-02-28T08:30:19;70.07;;;27.00;;
64871;SDS011;51351;51.450;6.614;2024-02-28T08:32:44;71.37;;;26.77;;
64871;SDS011;51351;51.450;6.614;2024-02-28T08:35:10;70.90;;;27.67;;
64871;SDS011;51351;51.450;6.614;2024-02-28T08:37:38;67.53;;;28.42;;
64871;SDS011;51351;51.450;6.614;2024-02-28T08:40:03;70.40;;;28.08;;
64871;SDS011;51351;51.450;6.614;2024-02-28T08:42:29;69.85;;;24.60;;
64871;SDS011;51351;51.450;6.614;2024-02-28T08:44:54;67.18;;;27.80;;
64871;SDS011;51351;51.450;6.614;2024-02-28T08:47:23;71.43;;;28.23;;
64871;SDS011;51351;51.450;6.614;2024-02-28T08:49:48;65.28;;;28.02;;
64871;SDS011;51351;51.450;6.614;2024-02-28T08:52:14;69.35;;;27.70;;
64871;SDS011;51351;51.450;6.614;2024-02-28T08:54:39;66.55;;;27.48;;
64871;SDS011;51351;51.450;6.614;2024-02-28T08:57:04;72.57;;;28.50;;
64871;SDS011;51351;51.450;6.614;2024-02-28T08:59:30;58.95;;;26.20;;
64871;SDS011;51351;51.450;6.614;2024-02-28T09:01:55;68.03;;;25.65;;
64871;SDS011;51351;51.450;6.614;2024-02-28T09:04:20;68.85;;;28.08;;
64871;SDS011;51351;51.450;6.614;2024-02-28T09:06:46;62.20;;;27.13;;
64871;SDS011;51351;51.450;6.614;2024-02-28T09:09:11;65.07;;;25.38;;
64871;SDS011;51351;51.450;6.614;2024-02-28T09:11:37;58.33;;;24.02;;
64871;SDS011;51351;51.450;6.614;2024-02-28T09:14:02;67.40;;;25.55;;
64871;SDS011;51351;51.450;6.614;2024-02-28T09:16:28;58.33;;;24.80;;
64871;SDS011;51351;51.450;6.614;2024-02-28T09:18:53;61.65;;;25.42;;
64871;SDS011;51351;51.450;6.614;2024-02-28T09:21:19;53.80;;;23.10;;
64871;SDS011;51351;51.450;6.614;2024-02-28T09:23:44;62.40;;;28.30;;
64871;SDS011;51351;51.450;6.614;2024-02-28T09:26:09;66.18;;;28.95;;
64871;SDS011;51351;51.450;6.614;2024-02-28T09:28:35;55.30;;;25.60;;
64871;SDS011;51351;51.450;6.614;2024-02-28T09:31:01;61.90;;;24.30;;
64871;SDS011;51351;51.450;6.614;2024-02-28T09:33:26;55.85;;;25.10;;
64871;SDS011;51351;51.450;6.614;2024-02-28T09:35:51;60.85;;;25.38;;
64871;SDS011;51351;51.450;6.614;2024-02-28T09:38:17;48.70;;;22.02;;
64871;SDS011;51351;51.450;6.614;2024-02-28T09:40:45;53.50;;;23.33;;
64871;SDS011;51351;51.450;6.614;2024-02-28T09:43:11;52.15;;;20.58;;
64871;SDS011;51351;51.450;6.614;2024-02-28T09:45:39;48.15;;;21.83;;
64871;SDS011;51351;51.450;6.614;2024-02-28T09:48:05;47.65;;;21.25;;
64871;SDS011;51351;51.450;6.614;2024-02-28T09:50:32;55.65;;;22.63;;
64871;SDS011;51351;51.450;6.614;2024-02-28T09:52:57;48.92;;;23.02;;
64871;SDS011;51351;51.450;6.614;2024-02-28T09:55:22;51.50;;;23.43;;
64871;SDS011;51351;51.450;6.614;2024-02-28T09:57:48;56.40;;;23.90;;
64871;SDS011;51351;51.450;6.614;2024-02-28T10:00:14;44.25;;;25.05;;
64871;SDS011;51351;51.450;6.614;2024-02-28T10:02:40;55.97;;;23.90;;
64871;SDS011;51351;51.450;6.614;2024-02-28T10:05:06;53.33;;;22.83;;
64871;SDS011;51351;51.450;6.614;2024-02-28T10:07:31;51.92;;;22.20;;
64871;SDS011;51351;51.450;6.614;2024-02-28T10:09:57;52.67;;;24.42;;
64871;SDS011;51351;51.450;6.614;2024-02-28T10:12:22;51.50;;;23.23;;
64871;SDS011;51351;51.450;6.614;2024-02-28T10:14:50;50.30;;;24.40;;
64871;SDS011;51351;51.450;6.614;2024-02-28T10:17:16;49.70;;;22.17;;
64871;SDS011;51351;51.450;6.614;2024-02-28T10:19:41;55.83;;;23.92;;
64871;SDS011;51351;51.450;6.614;2024-02-28T10:22:07;56.17;;;23.60;;
64871;SDS011;51351;51.450;6.614;2024-02-28T10:24:33;56.33;;;25.38;;
64871;SDS011;51351;51.450;6.614;2024-02-28T10:27:00;51.25;;;23.63;;
64871;SDS011;51351;51.450;6.614;2024-02-28T10:29:25;49.67;;;24.08;;
64871;SDS011;51351;51.450;6.614;2024-02-28T10:31:54;50.28;;;22.13;;
64871;SDS011;51351;51.450;6.614;2024-02-28T10:34:20;49.35;;;24.10;;
64871;SDS011;51351;51.450;6.614;2024-02-28T10:36:45;42.97;;;23.02;;
64871;SDS011;51351;51.450;6.614;2024-02-28T10:39:11;43.40;;;19.95;;
64871;SDS011;51351;51.450;6.614;2024-02-28T10:41:39;45.58;;;21.80;;
64871;SDS011;51351;51.450;6.614;2024-02-28T10:44:05;47.40;;;21.20;;
64871;SDS011;51351;51.450;6.614;2024-02-28T10:46:30;46.00;;;21.10;;
64871;SDS011;51351;51.450;6.614;2024-02-28T10:48:56;53.92;;;22.85;;
64871;SDS011;51351;51.450;6.614;2024-02-28T10:51:25;52.80;;;23.40;;
64871;SDS011;51351;51.450;6.614;2024-02-28T10:53:57;47.65;;;22.63;;
64871;SDS011;51351;51.450;6.614;2024-02-28T10:56:24;49.38;;;21.92;;
64871;SDS011;51351;51.450;6.614;2024-02-28T10:58:52;49.97;;;22.65;;
64871;SDS011;51351;51.450;6.614;2024-02-28T11:01:17;50.25;;;21.52;;
64871;SDS011;51351;51.450;6.614;2024-02-28T11:03:43;47.78;;;22.33;;
64871;SDS011;51351;51.450;6.614;2024-02-28T11:06:16;48.83;;;21.13;;
64871;SDS011;51351;51.450;6.614;2024-02-28T11:08:45;48.60;;;22.25;;
64871;SDS011;51351;51.450;6.614;2024-02-28T11:11:13;52.22;;;24.08;;
64871;SDS011;51351;51.450;6.614;2024-02-28T11:13:38;49.63;;;21.48;;
64871;SDS011;51351;51.450;6.614;2024-02-28T11:16:10;49.35;;;22.45;;
64871;SDS011;51351;51.450;6.614;2024-02-28T11:18:35;52.03;;;22.00;;
64871;SDS011;51351;51.450;6.614;2024-02-28T11:21:00;43.58;;;19.17;;
64871;SDS011;51351;51.450;6.614;2024-02-28T11:23:34;39.75;;;20.25;;
64871;SDS011;51351;51.450;6.614;2024-02-28T11:26:00;49.10;;;23.92;;
64871;SDS011;51351;51.450;6.614;2024-02-28T11:28:25;44.40;;;20.77;;
64871;SDS011;51351;51.450;6.614;2024-02-28T11:30:50;37.55;;;17.75;;
64871;SDS011;51351;51.450;6.614;2024-02-28T11:33:16;41.28;;;19.23;;
64871;SDS011;51351;51.450;6.614;2024-02-28T11:35:43;37.75;;;19.48;;
64871;SDS011;51351;51.450;6.614;2024-02-28T11:38:09;42.42;;;17.90;;
64871;SDS011;51351;51.450;6.614;2024-02-28T11:40:37;44.20;;;20.08;;
64871;SDS011;51351;51.450;6.614;2024-02-28T11:43:02;40.33;;;20.35;;
64871;SDS011;51351;51.450;6.614;2024-02-28T11:45:28;44.88;;;19.83;;
64871;SDS011;51351;51.450;6.614;2024-02-28T11:47:55;45.40;;;20.98;;
64871;SDS011;51351;51.450;6.614;2024-02-28T11:50:20;40.33;;;19.77;;
64871;SDS011;51351;51.450;6.614;2024-02-28T11:52:45;42.17;;;16.30;;
64871;SDS011;51351;51.450;6.614;2024-02-28T11:55:11;44.10;;;21.20;;
64871;SDS011;51351;51.450;6.614;2024-02-28T11:57:39;40.70;;;18.10;;
64871;SDS011;51351;51.450;6.614;2024-02-28T12:00:08;39.38;;;19.65;;
64871;SDS011;51351;51.450;6.614;2024-02-28T12:02:35;34.45;;;17.70;;
64871;SDS011;51351;51.450;6.614;2024-02-28T12:05:02;34.28;;;17.55;;
64871;SDS011;51351;51.450;6.614;2024-02-28T12:07:27;42.90;;;19.05;;
64871;SDS011;51351;51.450;6.614;2024-02-28T12:09:53;40.13;;;18.67;;
64871;SDS011;51351;51.450;6.614;2024-02-28T12:12:19;31.98;;;16.90;;
64871;SDS011;51351;51.450;6.614;2024-02-28T12:14:45;37.30;;;19.05;;
64871;SDS011;51351;51.450;6.614;2024-02-28T12:17:11;37.30;;;17.02;;
64871;SDS011;51351;51.450;6.614;2024-02-28T12:19:36;37.40;;;17.42;;
64871;SDS011;51351;51.450;6.614;2024-02-28T12:22:01;38.92;;;18.38;;
64871;SDS011;51351;51.450;6.614;2024-02-28T12:24:27;34.88;;;17.00;;
64871;SDS011;51351;51.450;6.614;2024-02-28T12:26:53;36.53;;;17.38;;
64871;SDS011;51351;51.450;6.614;2024-02-28T12:29:18;34.92;;;17.08;;
64871;SDS011;51351;51.450;6.614;2024-02-28T12:31:43;40.60;;;18.73;;
64871;SDS011;51351;51.450;6.614;2024-02-28T12:34:09;37.85;;;17.63;;
64871;SDS011;51351;51.450;6.614;2024-02-28T12:36:34;33.65;;;16.58;;
64871;SDS011;51351;51.450;6.614;2024-02-28T12:38:59;33.92;;;17.67;;
64871;SDS011;51351;51.450;6.614;2024-02-28T12:41:25;36.10;;;18.37;;
64871;SDS011;51351;51.450;6.614;2024-02-28T12:43:50;34.58;;;15.77;;
64871;SDS011;51351;51.450;6.614;2024-02-28T12:46:16;33.63;;;17.02;;
64871;SDS011;51351;51.450;6.614;2024-02-28T12:48:41;30.38;;;15.23;;
64871;SDS011;51351;51.450;6.614;2024-02-28T12:51:08;30.85;;;15.82;;
64871;SDS011;51351;51.450;6.614;2024-02-28T12:53:42;30.48;;;16.35;;
64871;SDS011;51351;51.450;6.614;2024-02-28T12:56:07;35.42;;;16.45;;
64871;SDS011;51351;51.450;6.614;2024-02-28T12:58:32;28.83;;;15.93;;
64871;SDS011;51351;51.450;6.614;2024-02-28T13:00:58;30.20;;;17.10;;
64871;SDS011;51351;51.450;6.614;2024-02-28T13:03:23;28.27;;;16.27;;
64871;SDS011;51351;51.450;6.614;2024-02-28T13:05:48;31.40;;;17.17;;
64871;SDS011;51351;51.450;6.614;2024-02-28T13:08:14;33.25;;;17.30;;
64871;SDS011;51351;51.450;6.614;2024-02-28T13:10:39;32.13;;;15.32;;
64871;SDS011;51351;51.450;6.614;2024-02-28T13:13:08;31.05;;;14.60;;
64871;SDS011;51351;51.450;6.614;2024-02-28T13:15:34;30.52;;;17.30;;
64871;SDS011;51351;51.450;6.614;2024-02-28T13:17:59;28.55;;;16.05;;
64871;SDS011;51351;51.450;6.614;2024-02-28T13:20:26;31.42;;;16.55;;
64871;SDS011;51351;51.450;6.614;2024-02-28T13:22:51;26.33;;;15.05;;
64871;SDS011;51351;51.450;6.614;2024-02-28T13:25:17;31.13;;;14.25;;
64871;SDS011;51351;51.450;6.614;2024-02-28T13:27:45;25.40;;;15.10;;
64871;SDS011;51351;51.450;6.614;2024-02-28T13:30:10;29.45;;;14.95;;
64871;SDS011;51351;51.450;6.614;2024-02-28T13:32:36;25.77;;;15.43;;
64871;SDS011;51351;51.450;6.614;2024-02-28T13:35:01;29.33;;;15.20;;
64871;SDS011;51351;51.450;6.614;2024-02-28T13:37:27;29.75;;;14.82;;
64871;SDS011;51351;51.450;6.614;2024-02-28T13:39:52;22.00;;;12.95;;
64871;SDS011;51351;51.450;6.614;2024-02-28T13:42:17;25.45;;;14.43;;
64871;SDS011;51351;51.450;6.614;2024-02-28T13:44:45;31.90;;;14.70;;
64871;SDS011;51351;51.450;6.614;2024-02-28T13:47:11;28.42;;;13.98;;
64871;SDS011;51351;51.450;6.614;2024-02-28T13:49:38;27.15;;;15.20;;
64871;SDS011;51351;51.450;6.614;2024-02-28T13:52:03;28.90;;;14.70;;
64871;SDS011;51351;51.450;6.614;2024-02-28T13:54:29;29.70;;;15.80;;
64871;SDS011;51351;51.450;6.614;2024-02-28T13:56:55;25.90;;;13.75;;
64871;SDS011;51351;51.450;6.614;2024-02-28T13:59:20;24.70;;;12.63;;
64871;SDS011;51351;51.450;6.614;2024-02-28T14:01:45;26.48;;;13.85;;
64871;SDS011;51351;51.450;6.614;2024-02-28T14:04:11;23.08;;;11.75;;
64871;SDS011;51351;51.450;6.614;2024-02-28T14:06:36;28.40;;;14.30;;
64871;SDS011;51351;51.450;6.614;2024-02-28T14:09:01;27.83;;;13.47;;
64871;SDS011;51351;51.450;6.614;2024-02-28T14:11:27;24.33;;;13.38;;
64871;SDS011;51351;51.450;6.614;2024-02-28T14:13:52;21.58;;;12.82;;
64871;SDS011;51351;51.450;6.614;2024-02-28T14:16:17;25.05;;;12.15;;